Cheniere, Louisiana
Current Conditions -  °F | °C
As of 12:53 PM on Friday 21 Nov 2014 (Local Time) from KMLU Reporting Station
Overcast Overcast  
Wind Chill: 66°   Ceiling: 8000
Heat Index: 66°   Visibility: 10mi
Dew Point: 48°   Wind: 7mph
Humidity: 52%   Direction: 150°SSE
Pressure: 30.23"   Gusts: NA
Location:  32.3932°N, 92.2204°W
Report Text: KMLU 211853Z 15006KT 10SM OVC080 19/09 A3023 RMK AO2 SLP237 T01890089
Loading
Personal Weather Stations






























Interactive Weather Map New forecast layout! Learn more

10-Day Weather Forecast

Advertisements
Track Severe Weather on mobile